Full Name Source Type Commits Attempts Last Result Actions Queries Updated
    drupal/commerce_kickstart - 19 Success 49 10723 2016-04-07
    drupal/openoutreach - 10 Success 1 27 2016-04-07
    drupal/agov - 9 Success 12 2319 2016-04-07
    drupal/spark - 9 Success 15 1378 2016-04-07
    drupal/openfolio - 9 Success 13 3085 2016-04-07
    drupal/opendeals - 9 Success 14 512 2016-04-07
    drupal/ableorganizer - 9 Success 35 2588 2016-04-07
    drupal/classified_advertising - 9 Success 15 1661 2016-04-07
    drupal/drustack - 9 Success 7 288 2016-04-07
    drupal/wetkit - 9 Success 43 1300 2016-04-07
    drupal/crm_core_donation_demo - 9 Success 13 1230 2016-04-07
    drupal/openaid - 8 Success 3 256 2016-04-07
    drupal/gridly - 8 Success 47 3880 2016-04-07
    drupal/async_drupal - 8 Success 8 660 2016-04-07
    drupal/cream - 8 Success 7 3135 2016-04-07
    drupal/bootstrap_freelancer - 8 Success 28 20523 2016-04-07
    drupal/crm_core_event_demo - 8 - 0 0 2016-04-04
    drupal/bigvideo_profile - 7 Success 3 201 2016-04-07
    drupal/seo_starter_kit - 7 Success 8 674 2016-04-04
    drupal/deims - 7 Success 9 637 2016-04-07
    drupal/hotsauce - 7 Success 5 351 2016-04-07
    drupal/stumblr - 7 - 0 0 2016-04-04
    drupal/commerce_deploy - 7 Success 1 24 2016-04-07
    drupal/leaflet_search_kickstart - 7 Success 1 45 2016-04-07
    drupal/kalvi - 7 Success 1 29 2016-04-07
    drupal/mvpcreator - 7 - 0 0 2016-04-04
    drupal/panopoly - 6 - 0 0 2016-05-26
    drupal/openpublic - 6 Success 2 1211 2016-04-03
    drupal/wordpress_kickstart - 6 Success 2 233 2016-04-03
    drupal/drupal_wiki - 6 Success 7 1602 2016-04-03
    drupal/flight - 6 Success 1 49 2016-04-04
    drupal/ferry - 6 Success 9 360 2016-04-04
    drupal/group_mind - 6 Success 16 7940 2016-04-03
    drupal/events - 6 - 0 0 2016-04-04
    drupal/gcl - 6 - 0 0 2016-04-04
    drupal/protocol - 6 - 0 0 2016-04-04
    rush4raushan/theimago 3 6 Success 7 274 2016-04-04
    LordFransie/Baystreet-Blocks 2 6 Success 7 274 2016-04-04
    drewzboto/revere 61 6 Success 7 274 2016-04-04
    cedewey/fistinthemouth 6 6 Success 7 274 2016-04-04
    xemoe/Openyogaapp_web 8 6 Success 7 285 2016-04-04
    carl0s/ddayroma2011 365 6 Success 7 334 2016-04-04
    fornof/Hello-world- 15142 6 Success 7 285 2016-04-04
    drupal/openpublish - 5 Success 1 229 2016-04-03
    drupal/drupalife_store - 5 Success 10 15707 2016-04-03
    drupal/multipurpose_corporate_profile - 5 - 0 0 2016-05-26
    drupal/corporate_profile - 5 Success 51 38323 2016-04-03
    drupal/easy_booking - 5 Success 18 2171 2016-04-04
    drupal/julio - 5 Success 15 4432 2016-04-03
    drupal/cm - 5 Success 3 1206 2016-04-03